Time;durP1;ratioP1;P1;durP2;ratioP2;P2;SDS_P1;SDS_P2;PMS_P1;PMS_P2;Temp;Humidity;BMP_temperature;BMP_pressure;BME280_temperature;BME280_humidity;BME280_pressure;Samples;Min_cycle;Max_cycle;Signal;HPM_P1;HPM_P2
2022/06/06 00:02:27;;;;;;;0.50;0.50;;;;;;;18.43;100.00;100197.59;5031902;28;20463;-49
2022/06/06 00:04:54;;;;;;;0.40;0.20;;;;;;;18.44;100.00;100202.03;5007834;28;20984;-48
2022/06/06 00:07:20;;;;;;;0.50;0.40;;;;;;;18.41;100.00;100202.22;5030450;28;20455;-48
2022/06/06 00:09:47;;;;;;;0.40;0.20;;;;;;;18.41;100.00;100194.16;4997882;28;20461;-47
2022/06/06 00:12:15;;;;;;;0.50;0.40;;;;;;;18.35;100.00;100207.97;5027157;28;21193;-48
2022/06/06 00:14:43;;;;;;;0.40;0.20;;;;;;;18.41;100.00;100206.75;5027505;28;20445;-48
2022/06/06 00:17:10;;;;;;;0.50;0.50;;;;;;;18.40;100.00;100199.63;5027565;28;20541;-47
2022/06/06 00:19:37;;;;;;;0.40;0.20;;;;;;;18.38;100.00;100198.88;5033402;28;20509;-47
2022/06/06 00:22:03;;;;;;;0.40;0.20;;;;;;;18.58;100.00;100199.34;5033000;28;20474;-48
2022/06/06 00:24:30;;;;;;;0.93;0.50;;;;;;;18.43;100.00;100192.22;5021579;28;20488;-48
2022/06/06 00:26:57;;;;;;;0.40;0.20;;;;;;;18.61;100.00;100182.97;5027474;28;20506;-48
2022/06/06 00:29:23;;;;;;;0.50;0.30;;;;;;;18.60;100.00;100191.16;5033366;28;20510;-48
2022/06/06 00:34:54;;;;;;;0.40;0.30;;;;;;;18.38;100.00;100185.41;5010364;28;20475;-48
2022/06/06 00:37:29;;;;;;;0.50;0.43;;;;;;;18.52;100.00;100180.88;5007951;28;20896;-48
2022/06/06 00:39:57;;;;;;;1.10;0.70;;;;;;;18.47;100.00;100185.69;5030703;28;20475;-48
2022/06/06 00:42:42;;;;;;;0.40;0.30;;;;;;;18.43;100.00;100183.28;5031978;28;20817;-48
2022/06/06 00:45:14;;;;;;;0.40;0.20;;;;;;;18.43;100.00;100176.06;5028284;28;21039;-48
2022/06/06 00:47:42;;;;;;;1.23;1.23;;;;;;;18.45;100.00;100165.22;5032829;28;20456;-48
2022/06/06 00:50:14;;;;;;;0.40;0.20;;;;;;;18.33;100.00;100172.22;5004863;28;20485;-48
2022/06/06 00:52:45;;;;;;;0.60;0.60;;;;;;;18.40;100.00;100154.75;5032952;28;20494;-48
2022/06/06 00:55:17;;;;;;;0.50;0.40;;;;;;;18.76;100.00;100147.97;5029339;28;20525;-48
2022/06/06 00:57:50;;;;;;;0.40;0.20;;;;;;;18.55;100.00;100145.69;5032476;28;20503;-48
2022/06/06 01:00:19;;;;;;;1.80;0.73;;;;;;;18.36;100.00;100145.09;5012649;28;20883;-48
2022/06/06 01:02:50;;;;;;;0.40;0.30;;;;;;;18.34;100.00;100155.09;5032440;28;20505;-48
2022/06/06 01:05:19;;;;;;;0.40;0.20;;;;;;;18.38;100.00;100150.44;5003366;28;20516;-47
2022/06/06 01:07:46;;;;;;;0.40;0.20;;;;;;;18.31;100.00;100158.00;5029698;28;20443;-49
2022/06/06 01:10:15;;;;;;;0.77;0.77;;;;;;;18.31;100.00;100168.75;5026160;28;20483;-47
2022/06/06 01:12:47;;;;;;;0.63;0.60;;;;;;;18.38;100.00;100167.44;5030475;28;20447;-47
2022/06/06 01:15:17;;;;;;;0.50;0.40;;;;;;;18.19;100.00;100167.69;5020650;28;20476;-47
2022/06/06 01:17:50;;;;;;;0.40;0.30;;;;;;;18.26;100.00;100177.13;5031566;28;20498;-48
2022/06/06 01:20:34;;;;;;;0.40;0.20;;;;;;;18.36;100.00;100172.03;5032134;28;20463;-48
2022/06/06 01:23:34;;;;;;;0.40;0.20;;;;;;;18.28;100.00;100171.66;5011531;28;20491;-48
2022/06/06 01:26:14;;;;;;;0.40;0.20;;;;;;;18.06;100.00;100175.66;5014239;28;20992;-49
2022/06/06 01:28:53;;;;;;;0.50;0.40;;;;;;;18.14;100.00;100169.81;5032166;28;20422;-48
2022/06/06 01:31:22;;;;;;;0.50;0.40;;;;;;;18.15;100.00;100168.00;5032169;28;20447;-47
2022/06/06 01:33:59;;;;;;;0.40;0.30;;;;;;;18.05;100.00;100171.25;5025637;28;20474;-48
2022/06/06 01:36:29;;;;;;;0.40;0.20;;;;;;;18.13;100.00;100168.09;5012747;28;20546;-48
2022/06/06 01:39:04;;;;;;;0.60;0.60;;;;;;;18.20;100.00;100168.56;5010390;28;20452;-48
2022/06/06 01:41:38;;;;;;;0.53;0.53;;;;;;;17.99;100.00;100166.25;5029615;28;20448;-48
2022/06/06 01:44:18;;;;;;;0.40;0.30;;;;;;;17.93;100.00;100171.13;5034822;28;20566;-48
2022/06/06 01:46:47;;;;;;;0.40;0.20;;;;;;;17.85;100.00;100178.81;5034054;28;20526;-49
2022/06/06 01:49:15;;;;;;;0.40;0.20;;;;;;;17.64;100.00;100168.34;5032050;28;20451;-48
2022/06/06 01:51:42;;;;;;;0.40;0.30;;;;;;;17.71;100.00;100167.06;5033326;28;20467;-48
2022/06/06 01:54:09;;;;;;;0.40;0.20;;;;;;;17.59;100.00;100169.56;5034206;28;20443;-48
2022/06/06 01:56:41;;;;;;;0.40;0.30;;;;;;;17.29;100.00;100181.19;5035288;28;20468;-48
2022/06/06 01:59:08;;;;;;;0.40;0.30;;;;;;;17.17;100.00;100173.81;5035828;28;20470;-48
2022/06/06 02:01:34;;;;;;;0.40;0.30;;;;;;;17.04;100.00;100184.41;5028885;28;20434;-47
2022/06/06 02:04:01;;;;;;;1.57;1.53;;;;;;;17.15;100.00;100178.41;5029422;28;20469;-47
2022/06/06 02:06:28;;;;;;;0.40;0.30;;;;;;;17.07;100.00;100169.94;5010094;28;20872;-48
2022/06/06 02:08:54;;;;;;;0.40;0.20;;;;;;;17.07;100.00;100169.94;5035558;28;20454;-48
2022/06/06 02:11:21;;;;;;;0.40;0.20;;;;;;;16.90;100.00;100176.25;5027516;28;20451;-48
2022/06/06 02:13:48;;;;;;;0.40;0.20;;;;;;;16.81;100.00;100174.94;5035668;28;20827;-48
2022/06/06 02:16:14;;;;;;;0.40;0.20;;;;;;;16.83;100.00;100181.09;5024772;28;20475;-48
2022/06/06 02:18:41;;;;;;;0.40;0.20;;;;;;;16.81;100.00;100182.13;5035536;28;20447;-47
2022/06/06 02:21:08;;;;;;;0.40;0.20;;;;;;;16.64;100.00;100180.38;5031146;28;20510;-48
2022/06/06 02:23:35;;;;;;;0.40;0.20;;;;;;;16.57;100.00;100179.81;5029993;28;20491;-48
2022/06/06 02:26:02;;;;;;;0.73;0.67;;;;;;;16.55;100.00;100186.22;5027184;28;20506;-47
2022/06/06 02:28:36;;;;;;;0.40;0.30;;;;;;;16.53;100.00;100180.94;5035282;28;20450;-48
2022/06/06 02:31:04;;;;;;;0.40;0.30;;;;;;;16.50;100.00;100172.22;5035432;28;20879;-48
2022/06/06 02:33:31;;;;;;;0.60;0.60;;;;;;;16.70;100.00;100163.06;5035269;28;20474;-47
2022/06/06 02:36:00;;;;;;;0.50;0.30;;;;;;;16.62;100.00;100157.25;5018078;28;20476;-48
2022/06/06 02:38:27;;;;;;;0.40;0.20;;;;;;;16.86;100.00;100151.41;5031678;28;20454;-48
2022/06/06 02:40:54;;;;;;;0.40;0.20;;;;;;;16.78;100.00;100145.59;5028396;28;20563;-47
2022/06/06 02:43:21;;;;;;;0.50;0.50;;;;;;;16.55;100.00;100140.59;5033959;28;20459;-49
2022/06/06 02:45:49;;;;;;;0.40;0.20;;;;;;;16.81;100.00;100155.28;5029289;28;20479;-47
2022/06/06 02:48:16;;;;;;;0.40;0.20;;;;;;;16.54;100.00;100155.84;5035417;28;21010;-47
2022/06/06 02:50:43;;;;;;;0.50;0.40;;;;;;;16.58;100.00;100146.69;5034800;28;20456;-47
2022/06/06 02:53:10;;;;;;;0.40;0.20;;;;;;;16.18;100.00;100157.88;5035024;28;20482;-47
2022/06/06 02:55:38;;;;;;;0.40;0.20;;;;;;;16.30;100.00;100144.63;5032275;28;20471;-47
2022/06/06 02:58:05;;;;;;;0.40;0.20;;;;;;;16.30;100.00;100143.78;5034698;28;20451;-47
2022/06/06 03:00:33;;;;;;;0.40;0.30;;;;;;;16.26;100.00;100161.00;5032838;28;20460;-47
2022/06/06 03:03:00;;;;;;;0.50;0.37;;;;;;;16.30;100.00;100158.03;5034582;28;20451;-47
2022/06/06 03:06:05;;;;;;;0.40;0.20;;;;;;;16.19;100.00;100151.56;5022599;28;20499;-48
2022/06/06 03:08:59;;;;;;;0.40;0.20;;;;;;;16.24;100.00;100152.16;4998594;28;20814;-47
2022/06/06 03:11:44;;;;;;;11.53;1.37;;;;;;;16.13;100.00;100154.56;5018763;28;20452;-48
2022/06/06 03:14:32;;;;;;;0.40;0.30;;;;;;;16.08;100.00;100157.50;5032680;28;20891;-48
2022/06/06 03:20:46;;;;;;;1.50;1.17;;;;;;;16.15;100.00;100160.69;5011724;28;20511;-47
2022/06/06 03:23:37;;;;;;;0.40;0.20;;;;;;;16.24;100.00;100152.16;5034426;28;20542;-47
2022/06/06 03:26:42;;;;;;;0.40;0.20;;;;;;;16.00;100.00;100160.56;5009252;28;20481;-47
2022/06/06 03:29:33;;;;;;;0.40;0.30;;;;;;;16.02;100.00;100165.84;5018507;28;20451;-47
2022/06/06 03:32:20;;;;;;;0.50;0.50;;;;;;;16.07;100.00;100182.56;5030948;28;20505;-47
2022/06/06 03:34:49;;;;;;;0.70;0.70;;;;;;;16.00;100.00;100176.66;5026671;28;20448;-48
2022/06/06 03:37:38;;;;;;;0.40;0.30;;;;;;;15.94;100.00;100187.72;5020688;28;20857;-47
2022/06/06 03:40:28;;;;;;;0.40;0.40;;;;;;;15.82;100.00;100188.34;5025258;28;20506;-48
2022/06/06 03:43:04;;;;;;;4.20;0.73;;;;;;;16.02;100.00;100195.34;5033137;28;20455;-49
2022/06/06 03:45:46;;;;;;;0.40;0.30;;;;;;;16.00;100.00;100207.97;5033858;28;20498;-48
2022/06/06 03:48:35;;;;;;;0.40;0.20;;;;;;;16.01;100.00;100209.69;5020834;28;20455;-47
2022/06/06 03:51:14;;;;;;;1.13;1.13;;;;;;;16.13;100.00;100219.78;5027468;28;20444;-48
2022/06/06 03:54:01;;;;;;;0.40;0.30;;;;;;;16.20;100.00;100210.47;5033857;28;20505;-47
2022/06/06 03:56:34;;;;;;;0.40;0.20;;;;;;;16.42;100.00;100204.81;5033710;28;20886;-48
2022/06/06 03:59:00;;;;;;;0.40;0.30;;;;;;;16.61;100.00;100199.34;5029972;28;20456;-47
2022/06/06 04:01:28;;;;;;;0.40;0.20;;;;;;;16.68;100.00;100206.09;5031484;28;20521;-47
2022/06/06 04:03:57;;;;;;;0.40;0.20;;;;;;;16.37;100.00;100200.66;5032675;28;20517;-49
2022/06/06 04:06:28;;;;;;;0.40;0.20;;;;;;;16.72;100.00;100202.31;5031331;28;20479;-48
2022/06/06 04:08:55;;;;;;;0.40;0.30;;;;;;;16.66;100.00;100202.63;5019434;28;20462;-48
2022/06/06 04:11:27;;;;;;;0.40;0.30;;;;;;;16.85;100.00;100213.22;5023154;28;20506;-47
2022/06/06 04:14:17;;;;;;;0.40;0.20;;;;;;;16.84;100.00;100217.72;5033164;28;20448;-50
2022/06/06 04:17:21;;;;;;;0.40;0.40;;;;;;;16.92;100.00;100216.44;5026853;28;20535;-47
2022/06/06 04:19:57;;;;;;;0.50;0.33;;;;;;;16.66;100.00;100217.84;4995935;28;20946;-48
2022/06/06 04:22:57;;;;;;;1.30;0.80;;;;;;;16.64;100.00;100217.94;5026776;28;20447;-48
2022/06/06 04:25:27;;;;;;;0.67;0.67;;;;;;;16.81;100.00;100225.09;5033110;28;20492;-47
2022/06/06 04:28:12;;;;;;;1.10;1.10;;;;;;;16.83;100.00;100217.81;5022854;28;20513;-48
2022/06/06 04:30:57;;;;;;;0.50;0.50;;;;;;;16.97;100.00;100222.41;5014247;28;20494;-48
2022/06/06 04:33:31;;;;;;;0.40;0.30;;;;;;;17.10;100.00;100226.16;5033193;28;20865;-47
2022/06/06 04:36:28;;;;;;;0.40;0.30;;;;;;;17.24;100.00;100222.69;5020096;28;21054;-48
2022/06/06 04:39:04;;;;;;;0.40;0.20;;;;;;;17.25;100.00;100216.34;5016479;28;20443;-49
2022/06/06 04:41:59;;;;;;;0.50;0.40;;;;;;;17.48;100.00;100222.13;5030434;28;20482;-48
2022/06/06 04:44:41;;;;;;;0.57;0.57;;;;;;;17.41;100.00;100223.47;5021241;28;20467;-47
2022/06/06 04:47:15;;;;;;;0.40;0.20;;;;;;;17.61;100.00;100219.59;5051901;23;20484;-50
2022/06/06 04:49:42;;;;;;;2.50;2.30;;;;;;;18.01;100.00;100223.50;5059073;28;20520;-53
2022/06/06 04:52:11;;;;;;;0.40;0.30;;;;;;;18.67;100.00;100215.91;5068482;28;20473;-53
2022/06/06 04:54:41;;;;;;;0.40;0.30;;;;;;;18.89;100.00;100221.66;5059239;28;20481;-53
2022/06/06 04:57:09;;;;;;;0.50;0.30;;;;;;;19.00;100.00;100218.28;5062628;28;20471;-54
2022/06/06 04:59:37;;;;;;;0.40;0.20;;;;;;;18.61;100.00;100219.81;5065703;28;20451;-54
2022/06/06 05:02:05;;;;;;;0.40;0.30;;;;;;;18.59;100.00;100225.28;5062953;28;20453;-52
2022/06/06 05:04:31;;;;;;;0.50;0.30;;;;;;;18.66;100.00;100224.97;5055182;28;20898;-52
2022/06/06 05:07:04;;;;;;;1.73;1.17;;;;;;;18.77;100.00;100234.06;5056263;28;20474;-52
2022/06/06 05:09:46;;;;;;;1.43;1.33;;;;;;;19.52;100.00;100227.38;5056867;28;20490;-52
2022/06/06 05:12:21;;;;;;;0.50;0.40;;;;;;;20.00;100.00;100232.28;5058734;28;20447;-53
2022/06/06 05:15:01;;;;;;;0.40;0.20;;;;;;;20.41;100.00;100230.28;5069184;28;20803;-52
2022/06/06 05:17:47;;;;;;;0.60;0.60;;;;;;;19.96;100.00;100233.47;5058807;28;20461;-52
2022/06/06 05:20:40;;;;;;;0.40;0.20;;;;;;;20.68;100.00;100235.56;5057553;28;20860;-52
2022/06/06 05:23:22;;;;;;;0.40;0.20;;;;;;;20.78;100.00;100249.31;5050953;28;20447;-53
2022/06/06 05:26:22;;;;;;;0.53;0.53;;;;;;;20.66;100.00;100242.94;5055110;28;20969;-54
2022/06/06 05:29:16;;;;;;;0.40;0.20;;;;;;;20.55;100.00;100248.22;5062345;28;20470;-50
2022/06/06 05:32:13;;;;;;;0.90;0.60;;;;;;;20.59;100.00;100252.47;5057041;28;20444;-52
2022/06/06 05:35:15;;;;;;;0.40;0.20;;;;;;;20.30;100.00;100250.91;5064508;28;20428;-52
2022/06/06 05:38:22;;;;;;;1.50;1.40;;;;;;;20.00;100.00;100253.84;5052343;28;20531;-53
2022/06/06 05:41:10;;;;;;;0.40;0.30;;;;;;;19.86;100.00;100248.53;5069613;28;20424;-53
2022/06/06 05:43:46;;;;;;;1.90;0.60;;;;;;;20.00;100.00;100246.63;5066633;28;20493;-52
2022/06/06 05:46:20;;;;;;;0.40;0.30;;;;;;;19.79;100.00;100251.66;5058352;28;20494;-55
2022/06/06 05:49:04;;;;;;;2.30;2.10;;;;;;;19.67;100.00;100255.19;5047813;28;20450;-52
2022/06/06 05:51:46;;;;;;;0.50;0.50;;;;;;;19.73;100.00;100249.34;5057951;28;20485;-53
2022/06/06 05:54:19;;;;;;;0.60;0.60;;;;;;;19.61;100.00;100246.66;5065447;28;20450;-52
2022/06/06 05:57:13;;;;;;;0.50;0.40;;;;;;;19.79;100.00;100257.06;5042258;28;20888;-53
2022/06/06 05:59:58;;;;;;;1.53;1.43;;;;;;;19.79;100.00;100256.19;5053883;28;20441;-53
2022/06/06 06:02:57;;;;;;;2.50;2.40;;;;;;;19.78;100.00;100251.78;5058353;28;20451;-53
2022/06/06 06:06:03;;;;;;;0.40;0.30;;;;;;;19.75;100.00;100255.53;5034052;28;20575;-54
2022/06/06 06:08:41;;;;;;;1.50;1.50;;;;;;;19.89;100.00;100253.75;5061620;28;20870;-53
2022/06/06 06:11:36;;;;;;;0.40;0.20;;;;;;;19.93;100.00;100271.44;5058228;28;20421;-55
2022/06/06 06:14:11;;;;;;;0.57;0.53;;;;;;;19.99;100.00;100262.94;5057914;28;20451;-54
2022/06/06 06:16:47;;;;;;;0.40;0.30;;;;;;;19.83;100.00;100261.28;5061571;28;20527;-55
2022/06/06 06:19:22;;;;;;;0.60;0.50;;;;;;;19.93;100.00;100258.81;5063132;28;20951;-55
2022/06/06 06:21:57;;;;;;;0.50;0.43;;;;;;;19.92;100.00;100269.72;5052478;28;20450;-55
2022/06/06 06:24:37;;;;;;;5.40;0.87;;;;;;;19.73;100.00;100272.78;5059122;28;20552;-55
2022/06/06 06:27:04;;;;;;;0.40;0.20;;;;;;;19.83;100.00;100268.50;5058969;28;20524;-55
2022/06/06 06:29:31;;;;;;;0.40;0.30;;;;;;;19.82;100.00;100278.44;5066849;28;20482;-54
2022/06/06 06:32:13;;;;;;;0.50;0.47;;;;;;;19.90;100.00;100282.47;5068151;28;20489;-54
2022/06/06 06:34:54;;;;;;;0.70;0.70;;;;;;;20.01;100.00;100279.88;5060095;28;20796;-55
2022/06/06 06:37:58;;;;;;;0.40;0.20;;;;;;;20.14;100.00;100283.47;5053848;28;20470;-55
2022/06/06 06:41:02;;;;;;;0.47;0.40;;;;;;;20.20;100.00;100296.56;5066400;28;20507;-54
2022/06/06 06:43:35;;;;;;;0.43;0.30;;;;;;;20.19;100.00;100285.88;5063875;28;20465;-55
2022/06/06 06:46:10;;;;;;;0.77;0.77;;;;;;;20.58;100.00;100283.16;5073798;28;20489;-55
2022/06/06 06:48:42;;;;;;;0.40;0.20;;;;;;;20.55;100.00;100290.56;5061615;28;20446;-54
2022/06/06 06:51:14;;;;;;;0.40;0.40;;;;;;;20.71;100.00;100291.25;5047682;28;20521;-55
2022/06/06 06:54:12;;;;;;;2.10;0.60;;;;;;;20.81;100.00;100294.16;5067194;28;20425;-54
2022/06/06 06:57:06;;;;;;;0.50;0.40;;;;;;;20.82;100.00;100296.75;5068386;28;20469;-55
2022/06/06 06:59:53;;;;;;;1.03;0.70;;;;;;;20.53;100.00;100306.03;5068132;28;20988;-55
2022/06/06 07:08:41;;;;;;;0.40;0.30;;;;;;;20.15;100.00;100311.31;5064614;28;20946;-55
2022/06/06 07:11:36;;;;;;;0.60;0.57;;;;;;;20.07;100.00;100310.03;5060315;28;20445;-55
2022/06/06 07:14:03;;;;;;;0.40;0.20;;;;;;;19.85;100.00;100317.81;5050309;28;20458;-55
2022/06/06 07:16:34;;;;;;;0.70;0.50;;;;;;;19.77;100.00;100314.78;5063114;28;20490;-55
2022/06/06 07:19:07;;;;;;;0.40;0.20;;;;;;;19.71;100.00;100309.78;5060690;28;20439;-54
2022/06/06 07:21:35;;;;;;;0.50;0.43;;;;;;;19.66;100.00;100312.78;5064465;28;20421;-55
2022/06/06 07:24:05;;;;;;;0.73;0.70;;;;;;;19.75;100.00;100322.13;5064508;28;20485;-55
2022/06/06 07:26:37;;;;;;;0.50;0.40;;;;;;;19.60;100.00;100315.91;5063265;28;20521;-55
2022/06/06 07:29:09;;;;;;;0.40;0.20;;;;;;;19.42;100.00;100314.34;5061450;28;20456;-55
2022/06/06 07:31:38;;;;;;;0.40;0.30;;;;;;;19.51;100.00;100321.84;5060629;28;21009;-55
2022/06/06 07:34:08;;;;;;;0.50;0.30;;;;;;;19.37;100.00;100320.03;5058359;28;20456;-55
2022/06/06 07:37:12;;;;;;;0.63;0.63;;;;;;;19.40;100.00;100338.72;5059153;28;20528;-55
2022/06/06 07:39:41;;;;;;;0.90;0.90;;;;;;;19.22;100.00;100327.28;5060060;28;20425;-55
2022/06/06 07:42:15;;;;;;;22.93;2.43;;;;;;;19.18;100.00;100328.44;5059545;28;20490;-55
2022/06/06 07:44:52;;;;;;;0.40;0.20;;;;;;;19.27;100.00;100323.44;5060007;28;20536;-55
2022/06/06 07:47:18;;;;;;;0.40;0.20;;;;;;;19.13;100.00;100327.88;5064231;28;20532;-55
2022/06/06 07:49:58;;;;;;;0.40;0.20;;;;;;;19.13;100.00;100319.78;5054505;28;20451;-55
2022/06/06 07:52:48;;;;;;;0.40;0.20;;;;;;;19.09;100.00;100320.09;5062950;28;20507;-55
2022/06/06 07:55:31;;;;;;;3.43;1.30;;;;;;;19.20;100.00;100314.88;5061306;28;20954;-58
2022/06/06 07:58:10;;;;;;;0.40;0.20;;;;;;;19.34;100.00;100322.09;5057255;28;20458;-54
2022/06/06 08:00:37;;;;;;;0.50;0.47;;;;;;;19.32;100.00;100321.28;5053186;28;20450;-54
2022/06/06 08:03:14;;;;;;;1.50;0.60;;;;;;;19.26;100.00;100324.38;5062398;28;20507;-54
2022/06/06 08:06:02;;;;;;;0.40;0.20;;;;;;;19.34;100.00;100328.34;5067354;28;20482;-55
2022/06/06 08:09:07;;;;;;;0.40;0.20;;;;;;;19.32;100.00;100330.25;5055528;28;20511;-54
2022/06/06 08:11:44;;;;;;;0.40;0.20;;;;;;;19.21;100.00;100322.00;5008154;28;20950;-55
2022/06/06 08:14:17;;;;;;;0.40;0.20;;;;;;;19.20;100.00;100326.53;5061101;28;20451;-54
2022/06/06 08:16:54;;;;;;;0.50;0.50;;;;;;;19.10;100.00;100330.75;5064361;28;20549;-54
2022/06/06 08:19:39;;;;;;;0.40;0.30;;;;;;;19.12;100.00;100336.91;5059827;28;20495;-52
2022/06/06 08:22:06;;;;;;;0.40;0.30;;;;;;;19.29;100.00;100326.88;5059678;28;20474;-52
2022/06/06 08:24:41;;;;;;;0.40;0.20;;;;;;;19.21;100.00;100314.78;5064245;28;20451;-52
2022/06/06 08:27:18;;;;;;;0.40;0.20;;;;;;;19.32;100.00;100321.28;5066748;28;20470;-52
2022/06/06 08:29:46;;;;;;;0.40;0.20;;;;;;;19.22;100.00;100316.50;5064917;28;20511;-51
2022/06/06 08:32:14;;;;;;;0.43;0.37;;;;;;;19.34;100.00;100314.88;5059435;28;20942;-52
2022/06/06 08:34:41;;;;;;;0.43;0.30;;;;;;;19.76;100.00;100313.91;5061172;28;20858;-51
2022/06/06 08:37:35;;;;;;;0.40;0.30;;;;;;;19.85;100.00;100308.84;5058142;28;20497;-52
2022/06/06 08:40:36;;;;;;;0.40;0.20;;;;;;;19.84;100.00;100297.19;5059250;28;20855;-52
2022/06/06 08:43:13;;;;;;;0.50;0.30;;;;;;;20.02;100.00;100305.91;5071179;28;20824;-52
2022/06/06 08:45:51;;;;;;;0.40;0.20;;;;;;;20.10;100.00;100308.94;5061525;28;20481;-52
2022/06/06 08:48:30;;;;;;;0.63;0.60;;;;;;;20.09;100.00;100307.22;5058471;28;20445;-52
2022/06/06 08:51:10;;;;;;;0.80;0.80;;;;;;;20.27;100.00;100297.84;5060405;28;20504;-52
2022/06/06 08:53:54;;;;;;;0.40;0.20;;;;;;;20.09;100.00;100305.38;5060057;28;20512;-52
2022/06/06 08:56:44;;;;;;;0.40;0.20;;;;;;;20.49;100.00;100301.81;5058885;28;20978;-52
2022/06/06 08:59:32;;;;;;;1.23;1.13;;;;;;;20.74;100.00;100296.44;5059456;28;20467;-52
2022/06/06 09:02:33;;;;;;;2.73;2.50;;;;;;;20.93;100.00;100291.44;5061816;28;20449;-53
2022/06/06 09:05:12;;;;;;;0.40;0.20;;;;;;;21.41;99.92;100293.44;5046906;28;20420;-53
2022/06/06 09:07:45;;;;;;;0.40;0.20;;;;;;;21.09;97.00;100301.16;5059200;28;20458;-52
2022/06/06 09:10:59;;;;;;;0.57;0.57;;;;;;;21.37;95.83;100291.94;5062465;28;20426;-53
2022/06/06 09:14:11;;;;;;;0.50;0.43;;;;;;;21.57;96.19;100296.75;5040169;28;20527;-53
2022/06/06 09:16:56;;;;;;;0.43;0.30;;;;;;;22.09;95.44;100295.56;5061894;28;20831;-52
2022/06/06 09:19:31;;;;;;;0.50;0.40;;;;;;;22.25;93.06;100287.13;5058888;28;20425;-53
2022/06/06 09:22:19;;;;;;;0.40;0.30;;;;;;;22.55;89.56;100287.44;5058544;28;20447;-53
2022/06/06 09:25:13;;;;;;;0.40;0.20;;;;;;;23.24;82.04;100281.97;5052368;28;20489;-53
2022/06/06 09:27:55;;;;;;;0.50;0.50;;;;;;;23.12;80.93;100281.09;5065068;28;20470;-53
2022/06/06 09:30:40;;;;;;;0.40;0.20;;;;;;;22.85;83.23;100276.06;5065140;28;20501;-56
2022/06/06 09:33:19;;;;;;;0.40;0.20;;;;;;;23.39;83.56;100272.56;5064530;28;20424;-56
2022/06/06 09:36:09;;;;;;;0.40;0.30;;;;;;;23.28;84.07;100270.72;5047137;28;20413;-56
2022/06/06 09:39:00;;;;;;;0.40;0.20;;;;;;;23.09;82.84;100266.94;5026379;28;20442;-53
2022/06/06 09:41:36;;;;;;;0.40;0.20;;;;;;;23.84;81.51;100256.19;5069109;28;20507;-53
2022/06/06 09:44:12;;;;;;;0.40;0.30;;;;;;;23.28;80.99;100259.88;5062840;28;20442;-53
2022/06/06 09:47:00;;;;;;;0.40;0.30;;;;;;;23.39;82.30;100261.72;5064995;28;21010;-53
2022/06/06 09:49:41;;;;;;;0.97;0.97;;;;;;;23.54;81.09;100256.88;5065224;28;20919;-53
2022/06/06 09:52:22;;;;;;;0.90;0.90;;;;;;;23.97;78.32;100251.44;5061051;28;20805;-53
2022/06/06 10:01:09;;;;;;;0.40;0.20;;;;;;;23.89;77.76;100248.53;5062406;28;20424;-53
2022/06/06 10:03:59;;;;;;;0.83;0.83;;;;;;;24.18;75.40;100248.75;5066081;28;20454;-53
2022/06/06 10:06:52;;;;;;;1.30;1.20;;;;;;;24.05;76.52;100242.66;5068973;28;20490;-53
2022/06/06 10:09:57;;;;;;;0.40;0.20;;;;;;;23.82;76.89;100248.16;5069063;28;20442;-54
2022/06/06 10:12:32;;;;;;;0.40;0.30;;;;;;;23.12;78.45;100247.69;4976450;28;20432;-53
2022/06/06 10:15:28;;;;;;;0.40;0.20;;;;;;;23.23;79.23;100244.97;5057049;28;20443;-53
2022/06/06 10:18:21;;;;;;;0.50;0.40;;;;;;;23.75;78.04;100249.69;5027495;28;20483;-54
2022/06/06 10:21:36;;;;;;;0.40;0.20;;;;;;;23.77;76.49;100233.28;5069089;28;20496;-54
2022/06/06 10:24:24;;;;;;;0.40;0.20;;;;;;;24.19;74.69;100224.16;5051953;28;20425;-53
2022/06/06 10:27:22;;;;;;;0.40;0.20;;;;;;;24.42;74.24;100211.34;5062734;28;20901;-54
2022/06/06 10:30:12;;;;;;;0.87;0.87;;;;;;;23.57;77.97;100219.53;5063372;28;20861;-53
2022/06/06 10:33:03;;;;;;;9.10;0.93;;;;;;;23.42;77.21;100211.75;5052953;28;20960;-53
2022/06/06 10:35:51;;;;;;;0.40;0.30;;;;;;;23.75;76.54;100208.09;5056134;28;21021;-53
2022/06/06 10:38:53;;;;;;;1.13;1.13;;;;;;;24.16;69.53;100212.72;5055266;28;20494;-54
2022/06/06 10:41:52;;;;;;;0.87;0.87;;;;;;;24.19;67.14;100215.16;5053090;28;20521;-54
2022/06/06 10:44:47;;;;;;;0.40;0.30;;;;;;;24.10;61.42;100224.09;5061495;28;21012;-53
2022/06/06 10:47:21;;;;;;;0.40;0.20;;;;;;;23.78;62.30;100225.00;5054252;28;20493;-53
2022/06/06 10:50:03;;;;;;;0.70;0.50;;;;;;;23.76;68.01;100220.69;5059188;28;20463;-54
2022/06/06 10:52:53;;;;;;;0.40;0.30;;;;;;;23.74;65.55;100215.41;5066960;28;20475;-54
2022/06/06 10:55:54;;;;;;;0.40;0.30;;;;;;;23.75;65.60;100210.81;5045919;28;20427;-54
2022/06/06 10:58:35;;;;;;;0.50;0.30;;;;;;;23.86;62.75;100213.50;5055790;28;20429;-53
2022/06/06 11:01:50;;;;;;;0.40;0.30;;;;;;;24.11;64.03;100218.53;5060108;28;20425;-54
2022/06/06 11:05:07;;;;;;;0.40;0.20;;;;;;;24.22;66.53;100209.44;5039267;28;20969;-53
2022/06/06 11:07:55;;;;;;;0.40;0.30;;;;;;;24.42;66.40;100216.78;4999241;28;20464;-54
2022/06/06 11:10:39;;;;;;;0.40;0.30;;;;;;;24.82;66.22;100202.38;4997493;28;20868;-53
2022/06/06 11:13:19;;;;;;;0.40;0.27;;;;;;;24.77;62.66;100207.34;5038294;28;20954;-55
2022/06/06 11:16:16;;;;;;;0.40;0.30;;;;;;;25.03;59.51;100197.75;5064760;28;20870;-53
2022/06/06 11:19:04;;;;;;;0.40;0.30;;;;;;;25.39;57.55;100203.56;5062165;28;20450;-53
2022/06/06 11:21:43;;;;;;;0.40;0.20;;;;;;;25.12;57.14;100187.03;5065372;28;20865;-53
2022/06/06 11:25:06;;;;;;;0.40;0.20;;;;;;;25.07;57.04;100184.72;5060662;28;20449;-53
2022/06/06 11:27:36;;;;;;;0.40;0.30;;;;;;;25.35;59.02;100170.31;5019541;28;20550;-53
2022/06/06 11:30:04;;;;;;;0.40;0.30;;;;;;;25.44;58.58;100190.38;5028933;28;20422;-54
2022/06/06 11:32:52;;;;;;;0.40;0.30;;;;;;;25.05;59.21;100184.00;5019099;28;20477;-54
2022/06/06 11:35:27;;;;;;;1.03;0.53;;;;;;;25.48;57.88;100174.63;5059493;28;20409;-54
2022/06/06 11:38:25;;;;;;;0.40;0.27;;;;;;;25.03;58.77;100170.53;5064743;28;20947;-53
2022/06/06 11:41:19;;;;;;;0.50;0.40;;;;;;;25.10;58.12;100177.16;5062532;28;20436;-53
2022/06/06 11:44:11;;;;;;;0.40;0.30;;;;;;;25.68;60.24;100169.09;5067042;28;20505;-53
2022/06/06 11:47:09;;;;;;;0.40;0.30;;;;;;;25.76;56.65;100170.22;5067130;28;20540;-53
2022/06/06 11:50:04;;;;;;;0.40;0.30;;;;;;;25.74;55.92;100164.06;5062136;28;20507;-54
2022/06/06 11:52:55;;;;;;;0.50;0.40;;;;;;;25.53;56.27;100169.63;5065400;28;20466;-53
2022/06/06 11:55:49;;;;;;;0.47;0.33;;;;;;;24.97;54.20;100160.19;5051647;28;20449;-53
2022/06/06 11:58:31;;;;;;;0.40;0.30;;;;;;;25.39;54.71;100166.31;5055289;28;20422;-54
2022/06/06 12:01:16;;;;;;;1.23;0.60;;;;;;;25.26;50.82;100156.72;5066714;28;20446;-53
2022/06/06 12:04:21;;;;;;;0.40;0.30;;;;;;;25.36;51.41;100160.31;5063822;28;20448;-54
2022/06/06 12:07:03;;;;;;;0.40;0.30;;;;;;;25.44;50.21;100151.41;5063471;28;20519;-54
2022/06/06 12:09:36;;;;;;;0.40;0.20;;;;;;;25.67;53.05;100145.56;5053915;28;20465;-54
2022/06/06 12:12:25;;;;;;;0.40;0.20;;;;;;;25.96;51.08;100140.09;5051865;28;20459;-54
2022/06/06 12:15:16;;;;;;;0.40;0.20;;;;;;;26.26;51.75;100138.16;5051664;28;20476;-54
2022/06/06 12:18:03;;;;;;;0.40;0.30;;;;;;;26.35;51.23;100147.31;5060152;28;20437;-53
2022/06/06 12:20:51;;;;;;;0.40;0.30;;;;;;;26.24;49.72;100138.31;5059763;28;21006;-54
2022/06/06 12:23:43;;;;;;;0.40;0.30;;;;;;;26.20;50.67;100136.03;5063687;28;20482;-54
2022/06/06 12:26:35;;;;;;;0.40;0.30;;;;;;;25.95;51.87;100145.69;5041139;28;20458;-53
2022/06/06 12:29:35;;;;;;;0.50;0.40;;;;;;;26.11;51.53;100150.53;5064423;28;20511;-53
2022/06/06 12:32:23;;;;;;;0.40;0.20;;;;;;;26.40;51.75;100147.75;5064327;28;20444;-53
2022/06/06 12:34:56;;;;;;;0.40;0.20;;;;;;;26.69;50.62;100145.78;5065999;28;20461;-53
2022/06/06 12:37:33;;;;;;;0.50;0.30;;;;;;;25.94;49.27;100158.47;5056027;28;21018;-54
2022/06/06 12:40:10;;;;;;;0.40;0.30;;;;;;;25.83;49.02;100158.63;5065473;28;20429;-54